Time;durP1;ratioP1;P1;durP2;ratioP2;P2;SDS_P1;SDS_P2;PMS_P1;PMS_P2;Temp;Humidity;BMP_temperature;BMP_pressure;BME280_temperature;BME280_humidity;BME280_pressure;Samples;Min_cycle;Max_cycle;Signal;HPM_P1;HPM_P2
2022/01/24 00:01:50;;;;;;;0.45;0.35;;;19.80;47.40;;;;;;6170814;28;20173;-69
2022/01/24 00:04:51;;;;;;;0.75;0.45;;;19.70;47.40;;;;;;6170956;28;20114;-69
2022/01/24 00:07:51;;;;;;;0.45;0.40;;;19.70;47.40;;;;;;6170789;28;20031;-69
2022/01/24 00:10:53;;;;;;;0.90;0.50;;;19.70;47.40;;;;;;6172954;28;20058;-68
2022/01/24 00:17:08;;;;;;;0.43;0.40;;;19.70;47.40;;;;;;6194648;28;20073;-69
2022/01/24 00:26:46;;;;;;;0.52;0.40;;;19.70;47.40;;;;;;6194540;28;20026;-69
2022/01/24 00:29:46;;;;;;;0.47;0.40;;;19.70;47.40;;;;;;6194423;28;20026;-69
2022/01/24 00:32:47;;;;;;;0.40;0.30;;;19.70;47.40;;;;;;6194184;28;20108;-69
2022/01/24 00:35:50;;;;;;;0.40;0.40;;;19.70;47.40;;;;;;6194675;28;20026;-69
2022/01/24 00:38:50;;;;;;;0.50;0.40;;;19.70;47.40;;;;;;6194687;28;20056;-69
2022/01/24 00:54:53;;;;;;;0.80;0.50;;;19.70;47.40;;;;;;6170351;28;20034;-69
2022/01/24 00:57:54;;;;;;;0.47;0.40;;;19.70;47.30;;;;;;6170031;28;20031;-69
2022/01/24 01:00:55;;;;;;;0.50;0.40;;;19.70;47.40;;;;;;6170024;28;20058;-69
2022/01/24 01:03:55;;;;;;;0.55;0.40;;;19.70;47.40;;;;;;6170059;28;20042;-69
2022/01/24 01:06:56;;;;;;;0.73;0.50;;;19.70;47.50;;;;;;6169955;28;20023;-69
2022/01/24 01:19:55;;;;;;;0.57;0.30;;;19.70;47.40;;;;;;6170633;28;20031;-69
2022/01/24 01:22:55;;;;;;;0.30;0.30;;;19.70;47.50;;;;;;6169871;28;20057;-69
2022/01/24 01:25:58;;;;;;;0.40;0.40;;;19.70;47.40;;;;;;6169791;28;20503;-69
2022/01/24 01:29:05;;;;;;;0.45;0.45;;;19.70;47.50;;;;;;6193212;28;20027;-69
2022/01/24 01:32:15;;;;;;;0.77;0.50;;;19.70;47.50;;;;;;6193631;28;20035;-70
2022/01/24 01:35:35;;;;;;;0.55;0.30;;;19.70;47.40;;;;;;6198266;28;20235;-69
2022/01/24 01:55:35;;;;;;;0.50;0.30;;;19.70;47.50;;;;;;6173785;28;20456;-69
2022/01/24 01:58:36;;;;;;;0.38;0.38;;;19.70;47.40;;;;;;6189653;28;20492;-69
2022/01/24 02:01:37;;;;;;;0.30;0.30;;;19.70;47.50;;;;;;6197737;28;20030;-70
2022/01/24 02:04:39;;;;;;;0.50;0.50;;;19.70;47.40;;;;;;6197621;28;20397;-69
2022/01/24 02:07:48;;;;;;;0.30;0.30;;;19.70;48.20;;;;;;6197692;28;20493;-69
2022/01/24 02:10:49;;;;;;;0.63;0.30;;;19.70;48.20;;;;;;6196997;28;20060;-69
2022/01/24 02:13:49;;;;;;;0.22;0.20;;;19.70;47.50;;;;;;6197343;28;20027;-69
2022/01/24 02:16:56;;;;;;;0.50;0.30;;;19.70;47.50;;;;;;6197354;28;20397;-69
2022/01/24 02:20:06;;;;;;;0.65;0.30;;;19.70;47.50;;;;;;6197232;28;20538;-69
2022/01/24 02:23:19;;;;;;;0.40;0.40;;;19.70;47.60;;;;;;6196854;28;20032;-70
2022/01/24 02:26:22;;;;;;;0.30;0.30;;;19.70;47.50;;;;;;6196706;28;20065;-69
2022/01/24 02:32:25;;;;;;;0.52;0.40;;;19.70;47.50;;;;;;6196716;28;20042;-69
2022/01/24 02:35:26;;;;;;;0.30;0.30;;;19.70;47.50;;;;;;6194922;28;20030;-69
2022/01/24 02:48:27;;;;;;;0.30;0.30;;;19.70;47.50;;;;;;6196954;28;20058;-69
2022/01/24 02:51:45;;;;;;;0.30;0.30;;;19.70;47.50;;;;;;6196242;28;20070;-69
2022/01/24 02:54:48;;;;;;;0.63;0.32;;;19.70;47.50;;;;;;6172514;28;20113;-69
2022/01/24 02:57:49;;;;;;;0.90;0.35;;;19.70;47.50;;;;;;6171871;28;20390;-69
2022/01/24 03:00:51;;;;;;;0.50;0.40;;;19.70;47.50;;;;;;6172298;28;20069;-68
2022/01/24 03:03:51;;;;;;;1.48;0.40;;;19.70;47.50;;;;;;6172008;28;20106;-69
2022/01/24 03:06:52;;;;;;;1.10;0.32;;;19.70;47.50;;;;;;6171947;28;20041;-69
2022/01/24 03:09:55;;;;;;;0.60;0.32;;;19.70;47.50;;;;;;6191663;28;20519;-69
2022/01/24 03:13:10;;;;;;;0.60;0.40;;;19.70;47.50;;;;;;6195920;28;20314;-69
2022/01/24 03:16:11;;;;;;;0.82;0.50;;;19.70;47.50;;;;;;6195975;28;20374;-69
2022/01/24 03:19:12;;;;;;;0.70;0.30;;;19.70;47.50;;;;;;6195744;28;20042;-69
2022/01/24 03:22:13;;;;;;;0.30;0.30;;;19.70;47.50;;;;;;6195831;28;20026;-69
2022/01/24 03:25:13;;;;;;;0.57;0.35;;;19.70;47.50;;;;;;6195309;28;20397;-69
2022/01/24 03:28:14;;;;;;;0.40;0.40;;;19.70;47.60;;;;;;6195282;28;20084;-69
2022/01/24 03:31:14;;;;;;;0.93;0.30;;;19.70;47.50;;;;;;6195301;28;20044;-69
2022/01/24 03:34:15;;;;;;;0.50;0.28;;;19.70;47.60;;;;;;6193336;28;20034;-69
2022/01/24 03:37:16;;;;;;;0.40;0.40;;;19.70;47.50;;;;;;6195092;28;20030;-69
2022/01/24 03:40:17;;;;;;;0.88;0.40;;;19.70;47.80;;;;;;6195768;28;20161;-69
2022/01/24 03:43:17;;;;;;;0.32;0.30;;;19.60;47.40;;;;;;6195151;28;20041;-69
2022/01/24 03:49:45;;;;;;;0.50;0.30;;;19.70;47.60;;;;;;6195359;28;20014;-69
2022/01/24 03:52:41;;;;;;;0.75;0.40;;;19.70;47.60;;;;;;6186960;28;20034;-69
2022/01/24 03:55:42;;;;;;;0.20;0.20;;;19.70;47.60;;;;;;6169853;28;20058;-69
2022/01/24 03:58:44;;;;;;;1.98;0.40;;;19.70;47.60;;;;;;6170744;28;20425;-70
2022/01/24 04:01:45;;;;;;;0.57;0.30;;;19.70;47.60;;;;;;6170945;28;20115;-69
2022/01/24 04:04:45;;;;;;;0.20;0.20;;;19.70;47.50;;;;;;6170719;28;20030;-69
2022/01/24 04:07:46;;;;;;;0.35;0.30;;;19.70;47.50;;;;;;6170248;28;20023;-69
2022/01/24 04:10:48;;;;;;;0.38;0.38;;;19.60;47.50;;;;;;6170064;28;20149;-69
2022/01/24 04:13:57;;;;;;;0.47;0.47;;;19.60;47.50;;;;;;6170230;28;20035;-69
2022/01/24 04:17:09;;;;;;;0.47;0.30;;;19.60;47.50;;;;;;6176006;28;20030;-69
2022/01/24 04:23:29;;;;;;;0.30;0.30;;;19.60;47.50;;;;;;6195098;28;20022;-69
2022/01/24 04:26:31;;;;;;;0.90;0.30;;;19.60;47.50;;;;;;6194322;28;20053;-69
2022/01/24 04:29:32;;;;;;;0.80;0.40;;;19.60;47.50;;;;;;6194363;28;20288;-69
2022/01/24 04:32:33;;;;;;;0.45;0.25;;;19.60;47.50;;;;;;6194164;28;20401;-69
2022/01/24 04:35:33;;;;;;;0.20;0.20;;;19.60;47.50;;;;;;6192606;28;20033;-69
2022/01/24 04:38:34;;;;;;;0.77;0.40;;;19.60;47.50;;;;;;6194223;28;20031;-69
2022/01/24 04:41:39;;;;;;;0.40;0.30;;;19.60;47.50;;;;;;6194724;28;20065;-69
2022/01/24 04:51:33;;;;;;;0.28;0.25;;;19.60;47.50;;;;;;6178641;28;20050;-69
2022/01/24 04:54:41;;;;;;;0.47;0.38;;;19.60;47.50;;;;;;6181970;28;20157;-69
2022/01/24 04:57:41;;;;;;;0.30;0.30;;;19.60;47.50;;;;;;6194125;28;20110;-69
2022/01/24 05:00:42;;;;;;;0.30;0.30;;;19.60;47.50;;;;;;6192782;28;20520;-68
2022/01/24 05:03:42;;;;;;;0.60;0.30;;;19.60;47.50;;;;;;6194103;28;20027;-69
2022/01/24 05:06:43;;;;;;;0.52;0.20;;;19.60;47.60;;;;;;6195280;28;20093;-69
2022/01/24 05:09:51;;;;;;;0.38;0.38;;;19.60;47.50;;;;;;6198278;28;20107;-70
2022/01/24 05:25:50;;;;;;;0.52;0.28;;;19.70;47.30;;;;;;6198717;28;20425;-68
2022/01/24 05:28:50;;;;;;;0.65;0.30;;;19.70;47.30;;;;;;6198221;28;20085;-69
2022/01/24 05:31:51;;;;;;;0.45;0.30;;;19.70;47.30;;;;;;6197878;28;20120;-69
2022/01/24 05:34:52;;;;;;;0.30;0.30;;;19.70;47.30;;;;;;6198217;28;20046;-68
2022/01/24 05:37:52;;;;;;;0.45;0.30;;;19.70;47.30;;;;;;6213045;28;20536;-69
2022/01/24 05:40:53;;;;;;;0.32;0.22;;;19.70;47.30;;;;;;6197965;28;20026;-68
2022/01/24 05:43:54;;;;;;;0.30;0.30;;;19.70;47.30;;;;;;6198185;28;20397;-69
2022/01/24 05:46:54;;;;;;;0.20;0.20;;;19.70;47.60;;;;;;6197878;28;20027;-69
2022/01/24 05:49:55;;;;;;;0.20;0.20;;;19.70;47.20;;;;;;6197884;28;20022;-69
2022/01/24 05:52:56;;;;;;;0.40;0.30;;;19.70;47.30;;;;;;6187791;28;20039;-69
2022/01/24 05:55:56;;;;;;;0.38;0.30;;;19.70;47.30;;;;;;6173710;28;20030;-69
2022/01/24 05:58:57;;;;;;;0.40;0.30;;;19.70;47.20;;;;;;6173435;28;20335;-69
2022/01/24 06:01:58;;;;;;;0.13;0.10;;;19.70;47.20;;;;;;6173527;28;20035;-69
2022/01/24 06:04:58;;;;;;;1.00;0.20;;;19.70;47.30;;;;;;6173519;28;20089;-69
2022/01/24 06:07:59;;;;;;;0.30;0.20;;;19.70;47.30;;;;;;6173593;28;20031;-69
2022/01/24 06:10:59;;;;;;;0.30;0.30;;;19.70;48.00;;;;;;6173010;28;20501;-69
2022/01/24 06:14:02;;;;;;;0.22;0.20;;;19.70;47.20;;;;;;6173051;28;20049;-69
2022/01/24 06:17:03;;;;;;;0.40;0.40;;;19.80;47.30;;;;;;6173224;28;20038;-68
2022/01/24 06:20:05;;;;;;;0.38;0.20;;;19.80;47.30;;;;;;6174721;28;20486;-69
2022/01/24 06:23:05;;;;;;;0.80;0.30;;;19.70;47.30;;;;;;6172721;28;20232;-68
2022/01/24 06:26:06;;;;;;;0.20;0.20;;;19.80;47.50;;;;;;6173454;28;20050;-69
2022/01/24 06:29:07;;;;;;;0.17;0.17;;;19.80;47.60;;;;;;6197013;28;20038;-69
2022/01/24 06:32:08;;;;;;;0.30;0.28;;;19.80;47.60;;;;;;6196736;28;20076;-69
2022/01/24 06:35:11;;;;;;;0.22;0.20;;;19.80;47.60;;;;;;6196752;28;20037;-69
2022/01/24 06:38:11;;;;;;;0.30;0.22;;;19.80;47.60;;;;;;6196879;28;20105;-69
2022/01/24 06:41:19;;;;;;;0.75;0.40;;;19.80;47.70;;;;;;6196459;28;20049;-69
2022/01/24 06:44:20;;;;;;;0.45;0.22;;;19.80;47.70;;;;;;6196538;28;20022;-69
2022/01/24 06:47:21;;;;;;;0.30;0.25;;;19.80;47.80;;;;;;6196735;28;20416;-69
2022/01/24 06:50:22;;;;;;;0.45;0.30;;;19.80;47.60;;;;;;6196131;28;20030;-69
2022/01/24 06:53:22;;;;;;;0.20;0.20;;;19.80;47.70;;;;;;6183105;28;20366;-69
2022/01/24 06:56:23;;;;;;;0.20;0.20;;;19.80;47.70;;;;;;6172134;28;20107;-69
2022/01/24 06:59:23;;;;;;;0.30;0.30;;;19.80;47.70;;;;;;6174800;28;20552;-69
2022/01/24 07:02:24;;;;;;;0.50;0.30;;;19.80;47.70;;;;;;6194130;28;20031;-69
2022/01/24 07:05:26;;;;;;;0.70;0.32;;;19.80;47.80;;;;;;6198242;28;20081;-69
2022/01/24 07:08:26;;;;;;;0.40;0.40;;;19.80;47.80;;;;;;6197893;28;20034;-69
2022/01/24 07:11:27;;;;;;;0.70;0.30;;;19.80;47.80;;;;;;6197776;28;20094;-69
2022/01/24 07:14:27;;;;;;;0.60;0.30;;;19.80;47.80;;;;;;6198157;28;20038;-70
2022/01/24 07:17:35;;;;;;;0.75;0.30;;;19.80;47.80;;;;;;6187638;28;20030;-69
2022/01/24 07:20:36;;;;;;;0.70;0.30;;;19.80;47.90;;;;;;6191101;28;20026;-69
2022/01/24 07:23:36;;;;;;;4.05;0.90;;;19.80;47.90;;;;;;6199913;28;20093;-69
2022/01/24 07:26:37;;;;;;;4.18;0.60;;;19.90;47.90;;;;;;6195179;28;20489;-69
2022/01/24 07:29:37;;;;;;;2.92;0.30;;;19.90;47.80;;;;;;6192225;28;20578;-69
2022/01/24 07:32:38;;;;;;;0.70;0.30;;;19.80;47.80;;;;;;6195171;28;20050;-69
2022/01/24 07:35:38;;;;;;;2.22;0.40;;;19.80;47.80;;;;;;6196108;28;20030;-69
2022/01/24 07:38:39;;;;;;;1.15;0.40;;;19.80;47.80;;;;;;6193173;28;20397;-69
2022/01/24 07:41:45;;;;;;;2.83;0.45;;;19.80;48.20;;;;;;6181440;28;20061;-70
2022/01/24 07:44:45;;;;;;;0.43;0.30;;;19.90;47.90;;;;;;6172891;28;20069;-69
2022/01/24 07:47:47;;;;;;;1.00;0.47;;;19.90;47.90;;;;;;6172565;28;20478;-69
2022/01/24 07:50:51;;;;;;;1.75;0.30;;;20.00;48.00;;;;;;6172109;28;20023;-70
2022/01/24 07:53:51;;;;;;;0.88;0.50;;;20.00;47.90;;;;;;6172480;28;20078;-70
2022/01/24 07:56:52;;;;;;;2.67;0.50;;;20.00;48.00;;;;;;6194386;28;20026;-70
2022/01/24 07:59:52;;;;;;;0.60;0.50;;;20.00;48.00;;;;;;6195804;28;20026;-69
2022/01/24 08:02:53;;;;;;;0.90;0.30;;;20.00;47.90;;;;;;6196267;28;20504;-70
2022/01/24 08:05:54;;;;;;;0.55;0.40;;;20.00;47.90;;;;;;6196273;28;20037;-70
2022/01/24 08:08:54;;;;;;;1.48;0.38;;;20.10;48.00;;;;;;6195327;28;20523;-70
2022/01/24 08:11:55;;;;;;;2.10;0.50;;;20.10;47.90;;;;;;6195571;28;20137;-70
2022/01/24 08:14:56;;;;;;;6.40;0.40;;;20.10;47.90;;;;;;6194457;28;20034;-69
2022/01/24 08:17:56;;;;;;;3.15;0.40;;;20.10;48.00;;;;;;6195905;28;20026;-70
2022/01/24 08:20:57;;;;;;;0.80;0.28;;;20.00;47.90;;;;;;6196124;28;20058;-69
2022/01/24 08:23:58;;;;;;;0.60;0.30;;;20.00;47.90;;;;;;6196086;28;20393;-70
2022/01/24 08:26:59;;;;;;;0.90;0.35;;;20.00;48.00;;;;;;6196246;28;20061;-69
2022/01/24 08:30:01;;;;;;;0.38;0.30;;;20.00;48.00;;;;;;6195543;28;20038;-69
2022/01/24 08:33:02;;;;;;;2.60;0.52;;;20.00;48.00;;;;;;6195285;28;20073;-69
2022/01/24 08:36:03;;;;;;;0.88;0.43;;;20.00;48.00;;;;;;6195568;28;20048;-69
2022/01/24 08:39:08;;;;;;;0.82;0.40;;;20.00;48.10;;;;;;6195192;28;20072;-69
2022/01/24 08:42:17;;;;;;;1.05;0.57;;;20.00;48.10;;;;;;6197782;28;20034;-69
2022/01/24 08:48:36;;;;;;;0.95;0.30;;;20.00;48.10;;;;;;6199663;28;20062;-68
2022/01/24 08:51:37;;;;;;;0.75;0.30;;;20.00;48.20;;;;;;6200587;28;20070;-69
2022/01/24 08:54:38;;;;;;;0.88;0.30;;;19.90;48.10;;;;;;6200971;28;20113;-68
2022/01/24 08:57:40;;;;;;;0.30;0.30;;;19.90;48.20;;;;;;6200295;28;20510;-70
2022/01/24 09:00:43;;;;;;;0.63;0.22;;;19.90;48.20;;;;;;6200200;28;20023;-70
2022/01/24 09:03:44;;;;;;;0.47;0.40;;;19.90;48.20;;;;;;6200523;28;20021;-70
2022/01/24 09:06:44;;;;;;;4.10;0.30;;;19.90;48.50;;;;;;6199998;28;20031;-70
2022/01/24 09:09:45;;;;;;;0.98;0.40;;;20.00;48.40;;;;;;6198136;28;20061;-70
2022/01/24 09:12:46;;;;;;;1.25;0.30;;;20.00;48.20;;;;;;6199609;28;20038;-69
2022/01/24 09:15:47;;;;;;;0.43;0.40;;;20.00;48.30;;;;;;6200348;28;20022;-69
2022/01/24 09:18:48;;;;;;;0.52;0.30;;;20.00;48.30;;;;;;6199730;28;20057;-70
2022/01/24 09:21:49;;;;;;;0.47;0.40;;;20.00;48.30;;;;;;6199446;28;20030;-69
2022/01/24 09:24:50;;;;;;;0.82;0.38;;;20.00;48.30;;;;;;6197774;28;20042;-70
2022/01/24 09:27:50;;;;;;;1.05;0.30;;;20.00;48.30;;;;;;6199332;28;20026;-70
2022/01/24 09:30:51;;;;;;;2.83;1.20;;;20.00;48.30;;;;;;6199735;28;20031;-70
2022/01/24 09:33:53;;;;;;;8.38;1.40;;;20.00;48.20;;;;;;6199061;28;20024;-70
2022/01/24 09:36:55;;;;;;;2.05;1.30;;;20.00;47.60;;;;;;6199358;28;20034;-70
2022/01/24 09:39:56;;;;;;;1.95;1.63;;;19.90;47.20;;;;;;6199487;28;20041;-70
2022/01/24 09:42:58;;;;;;;3.38;1.70;;;19.90;47.30;;;;;;6199913;28;20026;-70
2022/01/24 09:45:59;;;;;;;5.45;2.30;;;19.90;46.40;;;;;;6199389;28;20088;-70
2022/01/24 09:49:00;;;;;;;4.80;2.17;;;19.90;46.30;;;;;;6199279;28;20121;-69
2022/01/24 09:52:00;;;;;;;9.18;1.85;;;19.90;46.10;;;;;;6197259;28;20056;-69
2022/01/24 09:55:02;;;;;;;5.88;2.50;;;19.90;46.00;;;;;;6174176;28;20031;-69
2022/01/24 09:58:02;;;;;;;4.68;2.72;;;19.80;45.90;;;;;;6175164;28;20150;-69
2022/01/24 10:01:05;;;;;;;5.35;2.95;;;19.80;45.60;;;;;;6174731;28;20029;-70
2022/01/24 10:04:15;;;;;;;9.63;2.22;;;19.80;45.40;;;;;;6174878;28;20023;-70
2022/01/24 10:07:16;;;;;;;2.80;2.10;;;19.80;45.40;;;;;;6174450;28;20417;-70
2022/01/24 10:10:27;;;;;;;6.28;2.28;;;19.80;45.70;;;;;;6174472;28;20130;-70
2022/01/24 10:16:55;;;;;;;4.85;2.88;;;19.80;44.90;;;;;;6199164;28;20038;-69
2022/01/24 10:19:56;;;;;;;2.10;1.33;;;19.80;44.80;;;;;;6197297;28;20385;-69
2022/01/24 10:23:26;;;;;;;5.43;2.40;;;19.70;44.90;;;;;;6196983;28;20332;-70
2022/01/24 10:26:27;;;;;;;5.55;2.50;;;19.80;45.20;;;;;;6196508;28;20520;-70
2022/01/24 10:29:27;;;;;;;3.95;2.00;;;19.80;44.90;;;;;;6197632;28;20026;-70
2022/01/24 10:32:46;;;;;;;4.30;2.78;;;19.80;44.80;;;;;;6197396;28;20034;-70
2022/01/24 10:35:47;;;;;;;6.55;2.60;;;19.80;45.00;;;;;;6197931;28;20034;-70
2022/01/24 10:38:55;;;;;;;5.60;2.80;;;19.80;45.00;;;;;;6197620;28;20023;-69
2022/01/24 10:45:29;;;;;;;4.18;2.03;;;19.70;44.40;;;;;;6198545;28;20026;-70
2022/01/24 10:48:39;;;;;;;5.30;1.75;;;19.80;44.80;;;;;;6197184;28;20056;-70
2022/01/24 10:51:44;;;;;;;3.35;1.52;;;19.80;45.00;;;;;;6197905;28;20472;-69
2022/01/24 10:54:48;;;;;;;7.13;1.50;;;19.80;45.30;;;;;;6173718;28;20031;-69
2022/01/24 10:58:05;;;;;;;5.55;1.80;;;19.80;45.80;;;;;;6173291;28;20077;-70
2022/01/24 11:01:06;;;;;;;2.88;1.60;;;19.80;46.10;;;;;;6173512;28;20102;-70
2022/01/24 11:04:13;;;;;;;3.80;1.77;;;19.80;46.20;;;;;;6173427;28;20085;-69
2022/01/24 11:07:14;;;;;;;6.75;1.77;;;19.80;46.30;;;;;;6173541;28;20077;-70
2022/01/24 11:10:15;;;;;;;4.68;2.10;;;19.80;46.80;;;;;;6172920;28;20047;-69
2022/01/24 11:13:20;;;;;;;5.60;2.10;;;19.80;46.90;;;;;;6187300;28;20044;-70
2022/01/24 11:16:21;;;;;;;;;;;19.80;47.10;;;;;;6197320;28;20271;-70
2022/01/24 11:19:30;;;;;;;2.83;1.50;;;19.90;47.20;;;;;;6196656;28;19909;-70
2022/01/24 11:22:34;;;;;;;4.03;1.40;;;19.80;47.10;;;;;;6197815;28;20026;-69
2022/01/24 11:25:40;;;;;;;3.47;1.38;;;19.90;47.10;;;;;;6217900;28;20112;-70
2022/01/24 11:28:41;;;;;;;4.07;1.55;;;19.90;47.20;;;;;;6220954;28;20025;-70
2022/01/24 11:31:55;;;;;;;4.05;1.30;;;19.90;47.10;;;;;;6221287;28;20038;-69
2022/01/24 11:34:57;;;;;;;2.10;1.35;;;19.90;47.10;;;;;;6196631;28;20485;-70
2022/01/24 11:37:58;;;;;;;2.22;1.05;;;19.90;47.20;;;;;;6196774;28;20037;-69
2022/01/24 11:41:03;;;;;;;2.88;1.33;;;19.90;47.20;;;;;;6196968;28;20461;-70
2022/01/24 11:44:16;;;;;;;3.53;1.25;;;19.90;47.20;;;;;;6197164;28;20026;-70
2022/01/24 11:47:23;;;;;;;2.25;0.90;;;19.90;47.20;;;;;;6196313;28;20039;-69
2022/01/24 11:50:23;;;;;;;4.50;1.20;;;19.90;47.20;;;;;;6178172;28;20031;-69
2022/01/24 11:53:29;;;;;;;2.08;1.00;;;19.90;47.20;;;;;;6177606;28;20030;-70
2022/01/24 11:56:32;;;;;;;2.80;0.93;;;19.90;47.30;;;;;;6196310;28;20097;-70
2022/01/24 11:59:33;;;;;;;2.42;1.00;;;19.90;47.30;;;;;;6196143;28;20632;-70
2022/01/24 12:02:52;;;;;;;3.03;1.38;;;19.90;47.30;;;;;;6196351;28;20030;-70
2022/01/24 12:05:57;;;;;;;4.00;2.15;;;19.90;47.30;;;;;;6196967;28;20018;-70
2022/01/24 12:09:05;;;;;;;3.85;2.22;;;19.90;47.30;;;;;;6194296;28;20014;-70
2022/01/24 12:12:49;;;;;;;2.97;1.80;;;19.90;47.30;;;;;;6195658;28;20469;-70
2022/01/24 12:15:53;;;;;;;3.35;1.98;;;19.90;47.40;;;;;;6196330;28;20081;-70
2022/01/24 12:18:58;;;;;;;3.53;1.67;;;19.90;47.40;;;;;;6195865;28;20073;-69
2022/01/24 12:21:58;;;;;;;3.22;1.52;;;19.90;47.40;;;;;;6194859;28;20097;-69
2022/01/24 12:24:59;;;;;;;3.47;1.70;;;19.90;47.40;;;;;;6189216;28;20109;-70
2022/01/24 12:28:20;;;;;;;2.35;1.55;;;19.90;47.40;;;;;;6199794;28;20038;-70
2022/01/24 12:31:29;;;;;;;3.33;1.50;;;19.90;47.50;;;;;;6195366;28;20034;-70
2022/01/24 12:34:36;;;;;;;3.17;1.58;;;19.90;47.50;;;;;;6195282;28;20022;-69
2022/01/24 12:37:36;;;;;;;1.83;1.35;;;19.90;47.50;;;;;;6195208;28;20042;-69
2022/01/24 12:40:40;;;;;;;3.40;1.38;;;19.90;47.50;;;;;;6195701;28;20058;-69
2022/01/24 12:43:54;;;;;;;3.15;1.48;;;19.90;47.60;;;;;;6195234;28;20406;-69
2022/01/24 12:46:54;;;;;;;2.67;1.25;;;19.90;47.50;;;;;;6195372;28;20459;-69
2022/01/24 12:49:56;;;;;;;2.90;1.70;;;19.90;47.50;;;;;;6195617;28;20033;-69
2022/01/24 12:52:57;;;;;;;2.28;1.20;;;19.90;47.60;;;;;;6195098;28;20169;-70
2022/01/24 12:56:00;;;;;;;1.60;1.38;;;19.90;47.60;;;;;;6193990;28;20030;-70
2022/01/24 12:59:01;;;;;;;2.35;1.48;;;19.90;47.60;;;;;;6195363;28;20034;-70
2022/01/24 13:02:06;;;;;;;2.25;1.20;;;19.90;47.60;;;;;;6195409;28;20161;-69
2022/01/24 13:05:07;;;;;;;6.18;1.58;;;19.90;47.60;;;;;;6197660;28;20396;-71
2022/01/24 13:08:07;;;;;;;1.85;1.33;;;19.90;47.60;;;;;;6195019;28;20034;-69
2022/01/24 13:11:10;;;;;;;2.30;1.05;;;19.90;47.60;;;;;;6194991;28;20585;-69
2022/01/24 13:14:15;;;;;;;1.77;1.25;;;19.90;47.80;;;;;;6194881;28;20035;-69
2022/01/24 13:21:07;;;;;;;3.90;1.17;;;20.00;47.70;;;;;;6195338;28;20046;-69
2022/01/24 13:24:06;;;;;;;2.30;1.10;;;20.00;47.60;;;;;;6203892;28;20030;-69
2022/01/24 13:27:09;;;;;;;1.58;0.90;;;20.00;47.70;;;;;;6219238;28;20029;-69
2022/01/24 13:30:25;;;;;;;3.35;1.00;;;20.00;47.70;;;;;;6205518;28;20030;-67
2022/01/24 13:33:27;;;;;;;2.65;1.52;;;20.00;47.70;;;;;;6190780;28;20061;-69
2022/01/24 13:36:28;;;;;;;2.85;1.15;;;20.00;47.80;;;;;;6199328;28;20102;-69
2022/01/24 13:39:28;;;;;;;2.78;1.10;;;19.90;47.70;;;;;;6198837;28;20102;-69
2022/01/24 13:42:34;;;;;;;2.38;1.17;;;20.00;47.80;;;;;;6199469;28;20390;-70
2022/01/24 13:45:42;;;;;;;4.90;1.17;;;20.00;47.80;;;;;;6199434;28;20050;-69
2022/01/24 13:48:50;;;;;;;1.77;1.10;;;20.00;47.80;;;;;;6199098;28;20042;-69
2022/01/24 13:51:53;;;;;;;1.60;1.20;;;20.00;47.80;;;;;;6195648;28;20484;-69
2022/01/24 13:54:54;;;;;;;1.58;1.00;;;20.00;47.80;;;;;;6175079;28;20027;-69
2022/01/24 13:57:55;;;;;;;2.72;1.08;;;19.90;47.80;;;;;;6174570;28;20034;-69
2022/01/24 14:00:59;;;;;;;1.00;0.80;;;20.00;47.90;;;;;;6175022;28;20023;-69
2022/01/24 14:04:07;;;;;;;2.22;1.63;;;20.00;47.90;;;;;;6192434;28;20073;-68
2022/01/24 14:07:11;;;;;;;4.72;1.65;;;19.90;47.30;;;;;;6198264;28;20073;-69
2022/01/24 14:10:15;;;;;;;2.90;2.05;;;19.90;47.10;;;;;;6197021;28;20665;-70
2022/01/24 14:13:20;;;;;;;4.03;2.75;;;19.90;46.50;;;;;;6197935;28;20038;-69
2022/01/24 14:16:38;;;;;;;3.75;2.50;;;19.90;46.20;;;;;;6198639;28;20031;-68
2022/01/24 14:19:39;;;;;;;6.78;2.65;;;19.90;45.70;;;;;;6173969;28;20434;-69
2022/01/24 14:23:01;;;;;;;5.82;2.40;;;19.80;45.30;;;;;;6183856;28;20030;-69
2022/01/24 14:26:14;;;;;;;3.30;2.58;;;19.80;44.90;;;;;;6198698;28;20037;-69
2022/01/24 14:29:18;;;;;;;4.78;2.40;;;19.80;44.80;;;;;;6198387;28;20018;-69
2022/01/24 14:32:23;;;;;;;4.13;2.55;;;19.80;45.00;;;;;;6197768;28;20038;-69
2022/01/24 14:35:24;;;;;;;4.15;2.38;;;19.80;44.50;;;;;;6198219;28;20034;-69
2022/01/24 14:38:36;;;;;;;4.60;2.65;;;19.80;44.70;;;;;;6198347;28;20038;-69
2022/01/24 14:41:47;;;;;;;4.32;2.70;;;19.80;44.30;;;;;;6198268;28;20478;-69
2022/01/24 14:44:53;;;;;;;4.82;2.20;;;19.80;44.00;;;;;;6198582;28;20035;-70
2022/01/24 14:48:05;;;;;;;3.78;2.00;;;19.80;44.20;;;;;;6197798;28;20508;-68
2022/01/24 14:51:05;;;;;;;3.55;1.85;;;19.80;44.50;;;;;;6198037;28;20030;-69
2022/01/24 14:54:12;;;;;;;6.18;2.13;;;19.80;45.50;;;;;;6197221;28;20035;-69
2022/01/24 14:57:15;;;;;;;9.75;1.63;;;19.80;45.10;;;;;;6198246;28;20077;-72
2022/01/24 15:00:16;;;;;;;5.45;1.60;;;19.90;45.90;;;;;;6198118;28;20030;-68
2022/01/24 15:03:16;;;;;;;10.57;1.83;;;20.00;45.80;;;;;;6197858;28;20413;-69
2022/01/24 15:06:17;;;;;;;5.78;1.15;;;20.00;45.80;;;;;;6197631;28;20033;-70
2022/01/24 15:09:22;;;;;;;4.88;1.67;;;20.00;46.00;;;;;;6197460;28;20568;-69
2022/01/24 15:12:23;;;;;;;4.32;1.63;;;20.00;46.70;;;;;;6194754;28;20050;-70
2022/01/24 15:15:24;;;;;;;5.80;1.45;;;20.00;46.40;;;;;;6195622;28;20393;-69
2022/01/24 15:28:17;;;;;;;2.05;1.20;;;20.00;46.50;;;;;;6196885;28;20547;-69
2022/01/24 15:31:17;;;;;;;6.03;1.05;;;20.00;46.70;;;;;;6192094;28;20441;-69
2022/01/24 15:34:22;;;;;;;3.00;1.02;;;20.00;46.80;;;;;;6192589;28;20026;-69
2022/01/24 15:37:23;;;;;;;4.55;1.20;;;20.00;46.80;;;;;;6196135;28;20029;-69
2022/01/24 15:40:24;;;;;;;21.40;1.42;;;20.00;46.90;;;;;;6196760;28;20451;-68
2022/01/24 15:43:52;;;;;;;4.40;0.70;;;20.10;46.90;;;;;;6183784;28;20386;-68
2022/01/24 15:46:53;;;;;;;7.47;0.93;;;20.10;47.00;;;;;;6196710;28;20034;-68
2022/01/24 15:49:53;;;;;;;11.63;1.27;;;20.00;46.90;;;;;;6196117;28;20596;-68
2022/01/24 15:52:55;;;;;;;3.28;1.02;;;20.00;46.90;;;;;;6194249;28;20050;-67
2022/01/24 15:59:14;;;;;;;4.80;1.02;;;20.00;47.00;;;;;;6193150;28;20497;-67
2022/01/24 16:02:15;;;;;;;2.65;1.35;;;20.10;47.10;;;;;;6195311;28;20053;-67
2022/01/24 16:05:19;;;;;;;1.58;1.00;;;20.10;47.90;;;;;;6194870;28;20117;-66
2022/01/24 16:08:22;;;;;;;1.40;0.98;;;20.00;47.10;;;;;;6195270;28;20038;-68
2022/01/24 16:11:24;;;;;;;2.35;1.10;;;20.10;47.30;;;;;;6194642;28;20086;-68
2022/01/24 16:14:25;;;;;;;3.60;1.98;;;20.00;47.30;;;;;;6169665;28;20612;-68
2022/01/24 16:17:26;;;;;;;4.75;1.58;;;20.00;46.30;;;;;;6170625;28;20022;-68
2022/01/24 16:20:36;;;;;;;4.05;1.25;;;20.00;46.10;;;;;;6193121;28;20116;-68
2022/01/24 16:23:54;;;;;;;1.90;1.10;;;20.00;46.10;;;;;;6191379;28;20432;-68
2022/01/24 16:26:55;;;;;;;1.48;1.00;;;20.00;46.60;;;;;;6192700;28;20030;-69
2022/01/24 16:29:55;;;;;;;1.40;0.98;;;20.00;46.90;;;;;;6193263;28;20041;-68
2022/01/24 16:33:00;;;;;;;3.25;1.20;;;20.00;47.00;;;;;;6194049;28;20477;-68
2022/01/24 16:36:10;;;;;;;3.42;0.85;;;20.00;47.00;;;;;;6194359;28;20019;-68
2022/01/24 16:39:16;;;;;;;6.90;1.08;;;20.10;47.20;;;;;;6193955;28;20022;-68
2022/01/24 16:42:17;;;;;;;3.15;1.80;;;20.00;47.00;;;;;;6194578;28;20038;-68
2022/01/24 16:48:42;;;;;;;1.45;1.10;;;20.00;46.50;;;;;;6193814;28;20034;-67
2022/01/24 16:51:46;;;;;;;1.25;1.05;;;20.00;46.20;;;;;;6194430;28;20083;-68
2022/01/24 16:54:49;;;;;;;1.17;1.08;;;20.10;46.70;;;;;;6195168;28;20026;-68
2022/01/24 16:57:50;;;;;;;4.97;1.00;;;20.00;46.80;;;;;;6194468;28;20022;-69
2022/01/24 17:00:50;;;;;;;3.80;1.30;;;20.00;46.90;;;;;;6193663;28;20126;-68
2022/01/24 17:03:54;;;;;;;3.05;1.48;;;20.00;47.10;;;;;;6196390;28;20441;-68
2022/01/24 17:06:57;;;;;;;2.13;0.98;;;20.00;47.20;;;;;;6198728;28;20161;-67
2022/01/24 17:09:57;;;;;;;3.13;1.20;;;20.00;47.20;;;;;;6197323;28;20038;-68
2022/01/24 17:13:02;;;;;;;2.03;1.00;;;20.00;47.40;;;;;;6197365;28;20050;-65
2022/01/24 17:16:05;;;;;;;2.08;1.08;;;20.00;47.50;;;;;;6196268;28;20061;-67
2022/01/24 17:19:06;;;;;;;1.08;0.85;;;20.00;47.50;;;;;;6196783;28;20034;-68
2022/01/24 17:22:07;;;;;;;2.28;1.15;;;20.00;47.50;;;;;;6197041;28;20041;-68
2022/01/24 17:25:08;;;;;;;1.25;0.77;;;20.00;47.60;;;;;;6195707;28;20497;-68
2022/01/24 17:28:08;;;;;;;3.80;0.70;;;20.00;48.00;;;;;;6196414;28;20042;-70
2022/01/24 17:31:09;;;;;;;4.82;1.00;;;20.20;48.00;;;;;;6195458;28;20040;-69
2022/01/24 17:34:11;;;;;;;3.00;0.80;;;20.30;47.30;;;;;;6196069;28;20064;-69
2022/01/24 17:37:11;;;;;;;1.25;0.80;;;20.30;47.40;;;;;;6196407;28;20157;-70
2022/01/24 17:40:14;;;;;;;1.52;1.00;;;20.40;47.30;;;;;;6196207;28;20026;-70
2022/01/24 17:43:14;;;;;;;1.83;1.25;;;20.40;47.10;;;;;;6196446;28;20044;-70
2022/01/24 17:46:16;;;;;;;1.73;0.80;;;20.40;46.80;;;;;;6196432;28;20670;-70
2022/01/24 17:49:17;;;;;;;3.22;0.98;;;20.40;47.10;;;;;;6196011;28;20026;-69
2022/01/24 17:52:18;;;;;;;1.48;1.08;;;20.40;47.40;;;;;;6196586;28;20144;-69
2022/01/24 17:55:20;;;;;;;1.58;0.85;;;20.30;47.30;;;;;;6196289;28;20631;-68